sensor_id;sensor_type;location;lat;lon;timestamp;temperature;humidity
13850;DHT22;6995;52.618;13.488;2022-10-04T00:03:36;13.50;1.00
13850;DHT22;6995;52.618;13.488;2022-10-04T00:06:05;13.50;1.00
13850;DHT22;6995;52.618;13.488;2022-10-04T00:08:59;13.50;1.00
13850;DHT22;6995;52.618;13.488;2022-10-04T00:11:34;13.50;1.00
13850;DHT22;6995;52.618;13.488;2022-10-04T00:14:07;13.40;1.00
13850;DHT22;6995;52.618;13.488;2022-10-04T00:16:38;13.50;1.00
13850;DHT22;6995;52.618;13.488;2022-10-04T00:24:28;13.40;1.00
13850;DHT22;6995;52.618;13.488;2022-10-04T00:27:22;13.40;1.00
13850;DHT22;6995;52.618;13.488;2022-10-04T00:30:19;13.40;1.00
13850;DHT22;6995;52.618;13.488;2022-10-04T00:33:00;13.40;1.00
13850;DHT22;6995;52.618;13.488;2022-10-04T00:40:20;13.40;1.40
13850;DHT22;6995;52.618;13.488;2022-10-04T00:42:51;13.30;99.90
13850;DHT22;6995;52.618;13.488;2022-10-04T00:45:30;13.30;99.90
13850;DHT22;6995;52.618;13.488;2022-10-04T00:50:35;13.30;99.90
13850;DHT22;6995;52.618;13.488;2022-10-04T00:53:17;13.30;99.90
13850;DHT22;6995;52.618;13.488;2022-10-04T00:55:52;13.30;99.90
13850;DHT22;6995;52.618;13.488;2022-10-04T00:58:33;13.30;99.90
13850;DHT22;6995;52.618;13.488;2022-10-04T01:01:01;13.30;99.90
13850;DHT22;6995;52.618;13.488;2022-10-04T01:03:38;13.30;99.90
13850;DHT22;6995;52.618;13.488;2022-10-04T01:06:07;13.30;99.90
13850;DHT22;6995;52.618;13.488;2022-10-04T01:08:39;13.20;99.90
13850;DHT22;6995;52.618;13.488;2022-10-04T01:11:24;13.20;99.90
13850;DHT22;6995;52.618;13.488;2022-10-04T01:14:00;13.20;99.90
13850;DHT22;6995;52.618;13.488;2022-10-04T01:16:30;13.20;1.00
13850;DHT22;6995;52.618;13.488;2022-10-04T01:24:41;13.10;1.00
13850;DHT22;6995;52.618;13.488;2022-10-04T01:27:30;13.10;1.00
13850;DHT22;6995;52.618;13.488;2022-10-04T01:29:56;13.00;1.00
13850;DHT22;6995;52.618;13.488;2022-10-04T01:32:23;13.00;1.00
13850;DHT22;6995;52.618;13.488;2022-10-04T01:34:49;13.00;1.00
13850;DHT22;6995;52.618;13.488;2022-10-04T01:37:15;12.90;1.00
13850;DHT22;6995;52.618;13.488;2022-10-04T01:39:41;12.90;1.00
13850;DHT22;6995;52.618;13.488;2022-10-04T01:44:58;12.80;1.00
13850;DHT22;6995;52.618;13.488;2022-10-04T01:50:02;12.70;1.00
13850;DHT22;6995;52.618;13.488;2022-10-04T01:52:41;12.70;1.00
13850;DHT22;6995;52.618;13.488;2022-10-04T01:55:15;12.70;1.00
13850;DHT22;6995;52.618;13.488;2022-10-04T01:57:51;12.70;1.00
13850;DHT22;6995;52.618;13.488;2022-10-04T02:00:20;12.80;1.00
13850;DHT22;6995;52.618;13.488;2022-10-04T02:03:02;12.80;1.00
13850;DHT22;6995;52.618;13.488;2022-10-04T02:05:41;12.70;1.00
13850;DHT22;6995;52.618;13.488;2022-10-04T02:08:11;12.80;1.00
13850;DHT22;6995;52.618;13.488;2022-10-04T02:10:39;12.80;1.00
13850;DHT22;6995;52.618;13.488;2022-10-04T02:13:13;12.80;1.00
13850;DHT22;6995;52.618;13.488;2022-10-04T02:15:40;12.70;1.00
13850;DHT22;6995;52.618;13.488;2022-10-04T02:18:15;12.70;1.00
13850;DHT22;6995;52.618;13.488;2022-10-04T02:20:42;12.60;1.00
13850;DHT22;6995;52.618;13.488;2022-10-04T02:23:10;12.50;1.00
13850;DHT22;6995;52.618;13.488;2022-10-04T02:25:37;12.50;1.00
13850;DHT22;6995;52.618;13.488;2022-10-04T02:28:04;12.40;1.00
13850;DHT22;6995;52.618;13.488;2022-10-04T02:30:49;12.30;1.00
13850;DHT22;6995;52.618;13.488;2022-10-04T02:33:39;12.30;1.00
13850;DHT22;6995;52.618;13.488;2022-10-04T02:36:07;12.30;1.00
13850;DHT22;6995;52.618;13.488;2022-10-04T02:38:41;12.30;1.00
13850;DHT22;6995;52.618;13.488;2022-10-04T02:43:52;12.20;1.00
13850;DHT22;6995;52.618;13.488;2022-10-04T02:52:07;12.30;1.00
13850;DHT22;6995;52.618;13.488;2022-10-04T02:54:42;12.30;1.00
13850;DHT22;6995;52.618;13.488;2022-10-04T02:57:18;12.30;1.00
13850;DHT22;6995;52.618;13.488;2022-10-04T02:59:44;12.30;1.00
13850;DHT22;6995;52.618;13.488;2022-10-04T03:02:25;12.20;1.00
13850;DHT22;6995;52.618;13.488;2022-10-04T03:04:53;12.20;1.00
13850;DHT22;6995;52.618;13.488;2022-10-04T03:07:20;12.20;1.00
13850;DHT22;6995;52.618;13.488;2022-10-04T03:09:47;12.20;1.00
13850;DHT22;6995;52.618;13.488;2022-10-04T03:12:14;12.30;1.00
13850;DHT22;6995;52.618;13.488;2022-10-04T03:14:40;12.30;1.00
13850;DHT22;6995;52.618;13.488;2022-10-04T03:17:07;12.40;1.00
13850;DHT22;6995;52.618;13.488;2022-10-04T03:19:33;12.40;1.00
13850;DHT22;6995;52.618;13.488;2022-10-04T03:22:11;12.50;1.00
13850;DHT22;6995;52.618;13.488;2022-10-04T03:24:46;12.50;1.00
13850;DHT22;6995;52.618;13.488;2022-10-04T03:27:38;12.50;1.00
13850;DHT22;6995;52.618;13.488;2022-10-04T03:30:05;12.50;1.00
13850;DHT22;6995;52.618;13.488;2022-10-04T03:32:31;12.50;1.00
13850;DHT22;6995;52.618;13.488;2022-10-04T03:35:36;12.50;1.00
13850;DHT22;6995;52.618;13.488;2022-10-04T03:38:04;12.50;1.00
13850;DHT22;6995;52.618;13.488;2022-10-04T03:40:34;12.50;1.00
13850;DHT22;6995;52.618;13.488;2022-10-04T03:43:03;12.50;1.00
13850;DHT22;6995;52.618;13.488;2022-10-04T03:45:30;12.50;1.00
13850;DHT22;6995;52.618;13.488;2022-10-04T03:48:05;12.50;1.00
13850;DHT22;6995;52.618;13.488;2022-10-04T03:50:36;12.50;1.00
13850;DHT22;6995;52.618;13.488;2022-10-04T03:53:11;12.50;1.00
13850;DHT22;6995;52.618;13.488;2022-10-04T03:55:42;12.50;1.00
13850;DHT22;6995;52.618;13.488;2022-10-04T03:58:10;12.50;1.00
13850;DHT22;6995;52.618;13.488;2022-10-04T04:00:41;12.40;1.00
13850;DHT22;6995;52.618;13.488;2022-10-04T04:03:14;12.30;1.00
13850;DHT22;6995;52.618;13.488;2022-10-04T04:06:03;12.20;1.00
13850;DHT22;6995;52.618;13.488;2022-10-04T04:08:36;12.10;1.00
13850;DHT22;6995;52.618;13.488;2022-10-04T04:11:04;12.00;1.00
13850;DHT22;6995;52.618;13.488;2022-10-04T04:16:13;11.80;1.00
13850;DHT22;6995;52.618;13.488;2022-10-04T04:18:42;11.80;1.00
13850;DHT22;6995;52.618;13.488;2022-10-04T04:21:12;11.70;1.00
13850;DHT22;6995;52.618;13.488;2022-10-04T04:23:43;11.70;1.00
13850;DHT22;6995;52.618;13.488;2022-10-04T04:28:48;11.60;1.00
13850;DHT22;6995;52.618;13.488;2022-10-04T04:31:42;11.60;1.00
13850;DHT22;6995;52.618;13.488;2022-10-04T04:34:20;11.50;1.00
13850;DHT22;6995;52.618;13.488;2022-10-04T04:36:46;11.50;1.00
13850;DHT22;6995;52.618;13.488;2022-10-04T04:39:21;11.40;1.00
13850;DHT22;6995;52.618;13.488;2022-10-04T04:42:31;11.30;1.00
13850;DHT22;6995;52.618;13.488;2022-10-04T04:45:00;11.30;1.00
13850;DHT22;6995;52.618;13.488;2022-10-04T04:47:51;11.20;1.00
13850;DHT22;6995;52.618;13.488;2022-10-04T04:50:29;11.20;1.00
13850;DHT22;6995;52.618;13.488;2022-10-04T04:53:35;11.20;1.00
13850;DHT22;6995;52.618;13.488;2022-10-04T04:55:57;11.20;1.00
13850;DHT22;6995;52.618;13.488;2022-10-04T04:58:27;11.20;1.00
13850;DHT22;6995;52.618;13.488;2022-10-04T05:00:57;11.10;1.00
13850;DHT22;6995;52.618;13.488;2022-10-04T05:03:23;11.00;1.00
13850;DHT22;6995;52.618;13.488;2022-10-04T05:05:51;11.00;1.00
13850;DHT22;6995;52.618;13.488;2022-10-04T05:08:25;11.00;1.00
13850;DHT22;6995;52.618;13.488;2022-10-04T05:13:47;10.90;1.00
13850;DHT22;6995;52.618;13.488;2022-10-04T05:16:37;10.90;1.00
13850;DHT22;6995;52.618;13.488;2022-10-04T05:19:40;10.90;1.00
13850;DHT22;6995;52.618;13.488;2022-10-04T05:22:05;10.90;1.00
13850;DHT22;6995;52.618;13.488;2022-10-04T05:24:35;10.90;1.00
13850;DHT22;6995;52.618;13.488;2022-10-04T05:27:04;10.80;1.00
13850;DHT22;6995;52.618;13.488;2022-10-04T05:29:38;10.90;1.00
13850;DHT22;6995;52.618;13.488;2022-10-04T05:32:35;10.90;1.00
13850;DHT22;6995;52.618;13.488;2022-10-04T05:35:37;10.90;1.00
13850;DHT22;6995;52.618;13.488;2022-10-04T05:43:48;11.10;1.00
13850;DHT22;6995;52.618;13.488;2022-10-04T05:48:44;11.20;1.00
13850;DHT22;6995;52.618;13.488;2022-10-04T05:51:18;11.20;1.00
13850;DHT22;6995;52.618;13.488;2022-10-04T05:53:44;11.30;1.00
13850;DHT22;6995;52.618;13.488;2022-10-04T06:02:06;11.60;1.00
13850;DHT22;6995;52.618;13.488;2022-10-04T06:21:29;12.40;1.00
13850;DHT22;6995;52.618;13.488;2022-10-04T06:24:15;12.50;1.00
13850;DHT22;6995;52.618;13.488;2022-10-04T06:26:47;12.60;1.00
13850;DHT22;6995;52.618;13.488;2022-10-04T06:29:16;12.70;1.00
13850;DHT22;6995;52.618;13.488;2022-10-04T06:37:27;13.00;1.00
13850;DHT22;6995;52.618;13.488;2022-10-04T06:51:25;13.60;1.00
13850;DHT22;6995;52.618;13.488;2022-10-04T06:54:05;13.70;99.90
13850;DHT22;6995;52.618;13.488;2022-10-04T07:02:15;13.80;99.90
13850;DHT22;6995;52.618;13.488;2022-10-04T07:04:45;13.60;99.90
13850;DHT22;6995;52.618;13.488;2022-10-04T07:10:26;13.50;99.90
13850;DHT22;6995;52.618;13.488;2022-10-04T07:16:04;13.60;99.90
13850;DHT22;6995;52.618;13.488;2022-10-04T07:21:21;13.40;99.90
13850;DHT22;6995;52.618;13.488;2022-10-04T07:23:57;13.40;99.90
13850;DHT22;6995;52.618;13.488;2022-10-04T07:26:33;13.50;99.90
13850;DHT22;6995;52.618;13.488;2022-10-04T07:29:11;13.50;99.90
13850;DHT22;6995;52.618;13.488;2022-10-04T07:32:15;13.60;99.90
13850;DHT22;6995;52.618;13.488;2022-10-04T07:37:58;13.60;99.90
13850;DHT22;6995;52.618;13.488;2022-10-04T07:41:17;13.70;99.90
13850;DHT22;6995;52.618;13.488;2022-10-04T07:43:25;13.70;99.90
13850;DHT22;6995;52.618;13.488;2022-10-04T07:46:01;13.60;99.90
13850;DHT22;6995;52.618;13.488;2022-10-04T07:48:29;13.60;99.90
13850;DHT22;6995;52.618;13.488;2022-10-04T07:53:52;13.70;99.90
13850;DHT22;6995;52.618;13.488;2022-10-04T07:56:34;13.60;99.90
13850;DHT22;6995;52.618;13.488;2022-10-04T08:13:52;13.90;99.90
13850;DHT22;6995;52.618;13.488;2022-10-04T08:22:00;14.00;99.90
13850;DHT22;6995;52.618;13.488;2022-10-04T08:30:12;14.20;99.90
13850;DHT22;6995;52.618;13.488;2022-10-04T08:38:25;14.40;99.90
13850;DHT22;6995;52.618;13.488;2022-10-04T08:47:02;14.90;99.90
13850;DHT22;6995;52.618;13.488;2022-10-04T08:55:29;14.80;99.90
13850;DHT22;6995;52.618;13.488;2022-10-04T09:01:13;14.80;99.90
13850;DHT22;6995;52.618;13.488;2022-10-04T09:06:48;14.90;99.90
13850;DHT22;6995;52.618;13.488;2022-10-04T09:12:01;15.20;99.90
13850;DHT22;6995;52.618;13.488;2022-10-04T09:22:45;15.80;99.90
13850;DHT22;6995;52.618;13.488;2022-10-04T09:25:47;15.60;99.90
13850;DHT22;6995;52.618;13.488;2022-10-04T09:28:52;15.40;99.90
13850;DHT22;6995;52.618;13.488;2022-10-04T09:36:53;15.70;99.90
13850;DHT22;6995;52.618;13.488;2022-10-04T09:40:02;15.60;99.90
13850;DHT22;6995;52.618;13.488;2022-10-04T09:59:22;17.00;99.90
13850;DHT22;6995;52.618;13.488;2022-10-04T10:02:36;16.80;99.90
13850;DHT22;6995;52.618;13.488;2022-10-04T10:11:24;16.90;99.90
13850;DHT22;6995;52.618;13.488;2022-10-04T10:17:17;17.30;99.90
13850;DHT22;6995;52.618;13.488;2022-10-04T10:23:22;17.10;99.90
13850;DHT22;6995;52.618;13.488;2022-10-04T10:40:31;17.10;99.90
13850;DHT22;6995;52.618;13.488;2022-10-04T10:54:28;17.60;99.90
13850;DHT22;6995;52.618;13.488;2022-10-04T10:57:10;17.40;99.90
13850;DHT22;6995;52.618;13.488;2022-10-04T11:03:00;17.70;99.90
13850;DHT22;6995;52.618;13.488;2022-10-04T11:08:38;17.60;99.90
13850;DHT22;6995;52.618;13.488;2022-10-04T11:11:20;17.60;99.90
13850;DHT22;6995;52.618;13.488;2022-10-04T11:37:17;17.80;99.90
13850;DHT22;6995;52.618;13.488;2022-10-04T11:51:07;17.70;99.90
13850;DHT22;6995;52.618;13.488;2022-10-04T11:59:26;17.90;99.90
13850;DHT22;6995;52.618;13.488;2022-10-04T12:10:35;18.40;99.90
13850;DHT22;6995;52.618;13.488;2022-10-04T12:15:42;18.10;99.90
13850;DHT22;6995;52.618;13.488;2022-10-04T12:31:56;18.40;99.90
13850;DHT22;6995;52.618;13.488;2022-10-04T12:54:38;18.40;99.90
13850;DHT22;6995;52.618;13.488;2022-10-04T13:00:02;18.50;99.90
13850;DHT22;6995;52.618;13.488;2022-10-04T13:02:56;18.80;99.90
13850;DHT22;6995;52.618;13.488;2022-10-04T13:19:23;19.30;99.90
13850;DHT22;6995;52.618;13.488;2022-10-04T13:28:02;19.80;99.90
13850;DHT22;6995;52.618;13.488;2022-10-04T13:36:22;19.60;99.90
13850;DHT22;6995;52.618;13.488;2022-10-04T13:50:25;20.50;99.90
13850;DHT22;6995;52.618;13.488;2022-10-04T13:55:47;19.20;99.90
13850;DHT22;6995;52.618;13.488;2022-10-04T13:58:44;18.90;99.90
13850;DHT22;6995;52.618;13.488;2022-10-04T14:09:44;21.00;99.90
13850;DHT22;6995;52.618;13.488;2022-10-04T14:40:31;22.00;99.90
13850;DHT22;6995;52.618;13.488;2022-10-04T14:46:19;21.20;99.90
13850;DHT22;6995;52.618;13.488;2022-10-04T14:49:06;21.00;99.90
13850;DHT22;6995;52.618;13.488;2022-10-04T14:54:57;20.00;99.90
13850;DHT22;6995;52.618;13.488;2022-10-04T15:00:26;19.30;99.90
13850;DHT22;6995;52.618;13.488;2022-10-04T15:03:18;19.20;99.90
13850;DHT22;6995;52.618;13.488;2022-10-04T15:11:18;18.50;99.90
13850;DHT22;6995;52.618;13.488;2022-10-04T15:13:59;18.50;99.90
13850;DHT22;6995;52.618;13.488;2022-10-04T15:16:41;18.40;99.90
13850;DHT22;6995;52.618;13.488;2022-10-04T15:19:28;18.30;99.90
13850;DHT22;6995;52.618;13.488;2022-10-04T15:47:03;17.70;99.90
13850;DHT22;6995;52.618;13.488;2022-10-04T15:55:30;17.50;99.90
13850;DHT22;6995;52.618;13.488;2022-10-04T16:01:11;17.30;99.90
13850;DHT22;6995;52.618;13.488;2022-10-04T16:06:51;17.20;99.90
13850;DHT22;6995;52.618;13.488;2022-10-04T16:09:47;17.10;99.90
13850;DHT22;6995;52.618;13.488;2022-10-04T16:14:51;16.90;99.90
13850;DHT22;6995;52.618;13.488;2022-10-04T16:22:26;16.50;99.90
13850;DHT22;6995;52.618;13.488;2022-10-04T16:24:57;16.30;99.90
13850;DHT22;6995;52.618;13.488;2022-10-04T16:27:41;16.20;99.90
13850;DHT22;6995;52.618;13.488;2022-10-04T16:30:12;16.10;99.90
13850;DHT22;6995;52.618;13.488;2022-10-04T16:33:01;16.00;99.90
13850;DHT22;6995;52.618;13.488;2022-10-04T16:35:44;15.90;99.90
13850;DHT22;6995;52.618;13.488;2022-10-04T16:43:27;15.60;99.90
13850;DHT22;6995;52.618;13.488;2022-10-04T16:59:11;14.90;99.90
13850;DHT22;6995;52.618;13.488;2022-10-04T17:09:57;14.40;99.90
13850;DHT22;6995;52.618;13.488;2022-10-04T17:15:20;14.30;99.90
13850;DHT22;6995;52.618;13.488;2022-10-04T17:21:01;14.20;99.90
13850;DHT22;6995;52.618;13.488;2022-10-04T17:43:37;13.80;99.90
13850;DHT22;6995;52.618;13.488;2022-10-04T17:48:29;13.80;99.90
13850;DHT22;6995;52.618;13.488;2022-10-04T17:54:21;13.60;99.90
13850;DHT22;6995;52.618;13.488;2022-10-04T17:59:46;13.50;99.90
13850;DHT22;6995;52.618;13.488;2022-10-04T18:02:43;13.60;99.90
13850;DHT22;6995;52.618;13.488;2022-10-04T18:05:20;13.60;99.90
13850;DHT22;6995;52.618;13.488;2022-10-04T18:22:14;13.40;99.90
13850;DHT22;6995;52.618;13.488;2022-10-04T18:24:45;13.40;99.90
13850;DHT22;6995;52.618;13.488;2022-10-04T18:27:24;13.30;99.90
13850;DHT22;6995;52.618;13.488;2022-10-04T18:35:00;13.20;99.90
13850;DHT22;6995;52.618;13.488;2022-10-04T18:37:34;13.30;99.90
13850;DHT22;6995;52.618;13.488;2022-10-04T18:40:21;13.20;99.90
13850;DHT22;6995;52.618;13.488;2022-10-04T18:42:54;13.20;99.90
13850;DHT22;6995;52.618;13.488;2022-10-04T18:45:30;13.20;99.90
13850;DHT22;6995;52.618;13.488;2022-10-04T18:47:59;13.20;99.90
13850;DHT22;6995;52.618;13.488;2022-10-04T19:01:35;13.10;99.90
13850;DHT22;6995;52.618;13.488;2022-10-04T19:07:01;13.20;99.90
13850;DHT22;6995;52.618;13.488;2022-10-04T19:10:01;13.10;99.90
13850;DHT22;6995;52.618;13.488;2022-10-04T19:15:45;13.00;99.90
13850;DHT22;6995;52.618;13.488;2022-10-04T19:20:56;12.90;99.90
13850;DHT22;6995;52.618;13.488;2022-10-04T19:24:09;12.80;99.90
13850;DHT22;6995;52.618;13.488;2022-10-04T19:26:21;12.80;99.90
13850;DHT22;6995;52.618;13.488;2022-10-04T19:29:47;12.80;99.90
13850;DHT22;6995;52.618;13.488;2022-10-04T19:32:04;12.80;99.90
13850;DHT22;6995;52.618;13.488;2022-10-04T19:37:28;12.70;99.90
13850;DHT22;6995;52.618;13.488;2022-10-04T19:42:59;12.60;99.90
13850;DHT22;6995;52.618;13.488;2022-10-04T19:48:03;12.60;99.90
13850;DHT22;6995;52.618;13.488;2022-10-04T19:50:43;12.70;99.90
13850;DHT22;6995;52.618;13.488;2022-10-04T19:55:54;12.60;99.90
13850;DHT22;6995;52.618;13.488;2022-10-04T20:00:52;12.50;99.90
13850;DHT22;6995;52.618;13.488;2022-10-04T20:03:17;12.50;99.90
13850;DHT22;6995;52.618;13.488;2022-10-04T20:05:49;12.50;99.90
13850;DHT22;6995;52.618;13.488;2022-10-04T20:11:21;12.40;99.90
13850;DHT22;6995;52.618;13.488;2022-10-04T20:30:13;12.10;99.90
13850;DHT22;6995;52.618;13.488;2022-10-04T20:35:11;12.10;99.90
13850;DHT22;6995;52.618;13.488;2022-10-04T20:40:54;12.20;99.90
13850;DHT22;6995;52.618;13.488;2022-10-04T20:45:49;12.20;99.90
13850;DHT22;6995;52.618;13.488;2022-10-04T20:48:25;12.20;99.90
13850;DHT22;6995;52.618;13.488;2022-10-04T20:50:52;12.30;99.90
13850;DHT22;6995;52.618;13.488;2022-10-04T20:53:21;12.20;99.90
13850;DHT22;6995;52.618;13.488;2022-10-04T20:55:48;12.20;99.90
13850;DHT22;6995;52.618;13.488;2022-10-04T20:58:28;12.20;99.90
13850;DHT22;6995;52.618;13.488;2022-10-04T21:01:01;12.20;99.90
13850;DHT22;6995;52.618;13.488;2022-10-04T21:03:38;12.20;99.90
13850;DHT22;6995;52.618;13.488;2022-10-04T21:06:04;12.10;99.90
13850;DHT22;6995;52.618;13.488;2022-10-04T21:08:31;12.10;99.90
13850;DHT22;6995;52.618;13.488;2022-10-04T21:11:19;12.10;99.90
13850;DHT22;6995;52.618;13.488;2022-10-04T21:13:49;12.10;99.90
13850;DHT22;6995;52.618;13.488;2022-10-04T21:16:42;12.10;99.90
13850;DHT22;6995;52.618;13.488;2022-10-04T21:21:53;12.10;99.90
13850;DHT22;6995;52.618;13.488;2022-10-04T21:24:32;12.10;99.90
13850;DHT22;6995;52.618;13.488;2022-10-04T21:26:58;12.10;99.90
13850;DHT22;6995;52.618;13.488;2022-10-04T21:29:23;12.10;99.90
13850;DHT22;6995;52.618;13.488;2022-10-04T21:31:49;12.10;99.90
13850;DHT22;6995;52.618;13.488;2022-10-04T21:34:15;12.20;99.90
13850;DHT22;6995;52.618;13.488;2022-10-04T21:36:40;12.20;99.90
13850;DHT22;6995;52.618;13.488;2022-10-04T21:39:06;12.20;99.90
13850;DHT22;6995;52.618;13.488;2022-10-04T21:41:31;12.20;99.90
13850;DHT22;6995;52.618;13.488;2022-10-04T21:43:57;12.20;99.90
13850;DHT22;6995;52.618;13.488;2022-10-04T21:46:23;12.20;99.90
13850;DHT22;6995;52.618;13.488;2022-10-04T21:48:48;12.20;99.90
13850;DHT22;6995;52.618;13.488;2022-10-04T21:51:14;12.20;99.90
13850;DHT22;6995;52.618;13.488;2022-10-04T21:53:40;12.20;99.90
13850;DHT22;6995;52.618;13.488;2022-10-04T21:56:05;12.20;99.90
13850;DHT22;6995;52.618;13.488;2022-10-04T21:58:32;12.20;99.90
13850;DHT22;6995;52.618;13.488;2022-10-04T22:00:58;12.10;99.90
13850;DHT22;6995;52.618;13.488;2022-10-04T22:03:24;12.20;99.90
13850;DHT22;6995;52.618;13.488;2022-10-04T22:05:49;12.10;99.90
13850;DHT22;6995;52.618;13.488;2022-10-04T22:08:15;12.20;99.90
13850;DHT22;6995;52.618;13.488;2022-10-04T22:10:41;12.10;99.90
13850;DHT22;6995;52.618;13.488;2022-10-04T22:13:08;12.10;99.90
13850;DHT22;6995;52.618;13.488;2022-10-04T22:15:34;12.20;99.90
13850;DHT22;6995;52.618;13.488;2022-10-04T22:18:00;12.10;99.90
13850;DHT22;6995;52.618;13.488;2022-10-04T22:20:26;12.20;99.90
13850;DHT22;6995;52.618;13.488;2022-10-04T22:22:53;12.10;99.90
13850;DHT22;6995;52.618;13.488;2022-10-04T22:25:21;12.10;99.90
13850;DHT22;6995;52.618;13.488;2022-10-04T22:27:48;12.10;99.90
13850;DHT22;6995;52.618;13.488;2022-10-04T22:30:26;12.10;99.90
13850;DHT22;6995;52.618;13.488;2022-10-04T22:32:56;12.10;99.90
13850;DHT22;6995;52.618;13.488;2022-10-04T22:35:23;12.00;99.90
13850;DHT22;6995;52.618;13.488;2022-10-04T22:37:49;12.00;99.90
13850;DHT22;6995;52.618;13.488;2022-10-04T22:40:18;11.90;99.90
13850;DHT22;6995;52.618;13.488;2022-10-04T22:42:47;11.80;99.90
13850;DHT22;6995;52.618;13.488;2022-10-04T22:45:22;11.80;99.90
13850;DHT22;6995;52.618;13.488;2022-10-04T22:47:48;11.80;99.90
13850;DHT22;6995;52.618;13.488;2022-10-04T22:50:27;11.70;99.90
13850;DHT22;6995;52.618;13.488;2022-10-04T22:52:53;11.70;99.90
13850;DHT22;6995;52.618;13.488;2022-10-04T22:55:19;11.70;99.90
13850;DHT22;6995;52.618;13.488;2022-10-04T22:57:45;11.60;99.90
13850;DHT22;6995;52.618;13.488;2022-10-04T23:00:11;11.60;99.90
13850;DHT22;6995;52.618;13.488;2022-10-04T23:02:37;11.60;99.90
13850;DHT22;6995;52.618;13.488;2022-10-04T23:05:17;11.60;99.90
13850;DHT22;6995;52.618;13.488;2022-10-04T23:07:44;11.60;99.90
13850;DHT22;6995;52.618;13.488;2022-10-04T23:10:12;11.60;99.90
13850;DHT22;6995;52.618;13.488;2022-10-04T23:12:39;11.60;99.90
13850;DHT22;6995;52.618;13.488;2022-10-04T23:15:06;11.50;99.90
13850;DHT22;6995;52.618;13.488;2022-10-04T23:17:37;11.50;99.90
13850;DHT22;6995;52.618;13.488;2022-10-04T23:22:35;11.50;99.90
13850;DHT22;6995;52.618;13.488;2022-10-04T23:25:01;11.40;99.90
13850;DHT22;6995;52.618;13.488;2022-10-04T23:27:27;11.40;99.90
13850;DHT22;6995;52.618;13.488;2022-10-04T23:30:03;11.40;99.90
13850;DHT22;6995;52.618;13.488;2022-10-04T23:32:30;11.30;99.90
13850;DHT22;6995;52.618;13.488;2022-10-04T23:34:57;11.30;99.90
13850;DHT22;6995;52.618;13.488;2022-10-04T23:37:25;11.20;99.90
13850;DHT22;6995;52.618;13.488;2022-10-04T23:39:53;11.20;99.90
13850;DHT22;6995;52.618;13.488;2022-10-04T23:42:21;11.20;99.90
13850;DHT22;6995;52.618;13.488;2022-10-04T23:44:53;11.20;99.90
13850;DHT22;6995;52.618;13.488;2022-10-04T23:47:21;11.20;99.90
13850;DHT22;6995;52.618;13.488;2022-10-04T23:49:49;11.30;99.90
13850;DHT22;6995;52.618;13.488;2022-10-04T23:52:21;11.30;99.90
13850;DHT22;6995;52.618;13.488;2022-10-04T23:54:50;11.30;99.90
13850;DHT22;6995;52.618;13.488;2022-10-04T23:57:25;11.40;99.90
13850;DHT22;6995;52.618;13.488;2022-10-04T23:59:51;11.30;99.90
